sensor_id;sensor_type;location;lat;lon;timestamp;P1;durP1;ratioP1;P2;durP2;ratioP2
665;SDS011;315;48.738;9.126;2022-07-10T00:00:27;7.40;;;6.90;;
665;SDS011;315;48.738;9.126;2022-07-10T00:02:53;8.17;;;7.47;;
665;SDS011;315;48.738;9.126;2022-07-10T00:05:19;7.80;;;7.10;;
665;SDS011;315;48.738;9.126;2022-07-10T00:07:45;7.67;;;6.97;;
665;SDS011;315;48.738;9.126;2022-07-10T00:10:11;7.20;;;6.70;;
665;SDS011;315;48.738;9.126;2022-07-10T00:12:37;8.10;;;7.40;;
665;SDS011;315;48.738;9.126;2022-07-10T00:15:03;6.90;;;6.20;;
665;SDS011;315;48.738;9.126;2022-07-10T00:17:30;8.37;;;7.83;;
665;SDS011;315;48.738;9.126;2022-07-10T00:19:56;7.90;;;7.27;;
665;SDS011;315;48.738;9.126;2022-07-10T00:22:21;7.37;;;6.80;;
665;SDS011;315;48.738;9.126;2022-07-10T00:24:47;8.70;;;8.03;;
665;SDS011;315;48.738;9.126;2022-07-10T00:27:15;7.83;;;7.33;;
665;SDS011;315;48.738;9.126;2022-07-10T00:29:41;7.77;;;7.20;;
665;SDS011;315;48.738;9.126;2022-07-10T00:32:06;7.70;;;7.17;;
665;SDS011;315;48.738;9.126;2022-07-10T00:34:32;7.60;;;7.00;;
665;SDS011;315;48.738;9.126;2022-07-10T00:36:58;6.23;;;5.73;;
665;SDS011;315;48.738;9.126;2022-07-10T00:39:23;6.90;;;6.47;;
665;SDS011;315;48.738;9.126;2022-07-10T00:41:49;7.20;;;6.70;;
665;SDS011;315;48.738;9.126;2022-07-10T00:44:15;7.60;;;7.10;;
665;SDS011;315;48.738;9.126;2022-07-10T00:46:40;6.97;;;6.40;;
665;SDS011;315;48.738;9.126;2022-07-10T00:49:06;8.20;;;7.53;;
665;SDS011;315;48.738;9.126;2022-07-10T00:51:32;7.00;;;6.50;;
665;SDS011;315;48.738;9.126;2022-07-10T00:53:59;8.60;;;7.80;;
665;SDS011;315;48.738;9.126;2022-07-10T00:56:25;7.10;;;6.60;;
665;SDS011;315;48.738;9.126;2022-07-10T00:58:52;6.77;;;6.27;;
665;SDS011;315;48.738;9.126;2022-07-10T01:01:18;8.20;;;7.57;;
665;SDS011;315;48.738;9.126;2022-07-10T01:03:45;7.13;;;6.63;;
665;SDS011;315;48.738;9.126;2022-07-10T01:06:12;7.70;;;7.20;;
665;SDS011;315;48.738;9.126;2022-07-10T01:08:38;7.23;;;6.63;;
665;SDS011;315;48.738;9.126;2022-07-10T01:11:04;7.60;;;6.93;;
665;SDS011;315;48.738;9.126;2022-07-10T01:13:30;7.40;;;6.90;;
665;SDS011;315;48.738;9.126;2022-07-10T01:15:56;8.43;;;7.90;;
665;SDS011;315;48.738;9.126;2022-07-10T01:18:22;6.80;;;6.40;;
665;SDS011;315;48.738;9.126;2022-07-10T01:20:51;7.57;;;7.07;;
665;SDS011;315;48.738;9.126;2022-07-10T01:23:18;7.00;;;6.50;;
665;SDS011;315;48.738;9.126;2022-07-10T01:25:43;7.07;;;6.47;;
665;SDS011;315;48.738;9.126;2022-07-10T01:28:09;7.00;;;6.50;;
665;SDS011;315;48.738;9.126;2022-07-10T01:30:34;7.57;;;7.00;;
665;SDS011;315;48.738;9.126;2022-07-10T01:33:00;7.53;;;7.00;;
665;SDS011;315;48.738;9.126;2022-07-10T01:35:26;7.43;;;6.93;;
665;SDS011;315;48.738;9.126;2022-07-10T01:37:51;7.13;;;6.57;;
665;SDS011;315;48.738;9.126;2022-07-10T01:40:17;6.80;;;6.30;;
665;SDS011;315;48.738;9.126;2022-07-10T01:42:42;6.77;;;6.27;;
665;SDS011;315;48.738;9.126;2022-07-10T01:45:09;7.70;;;7.10;;
665;SDS011;315;48.738;9.126;2022-07-10T01:47:35;7.33;;;6.77;;
665;SDS011;315;48.738;9.126;2022-07-10T01:50:01;7.83;;;7.33;;
665;SDS011;315;48.738;9.126;2022-07-10T01:52:27;8.23;;;7.57;;
665;SDS011;315;48.738;9.126;2022-07-10T01:54:53;7.60;;;7.10;;
665;SDS011;315;48.738;9.126;2022-07-10T01:57:18;7.20;;;6.70;;
665;SDS011;315;48.738;9.126;2022-07-10T01:59:44;7.87;;;7.30;;
665;SDS011;315;48.738;9.126;2022-07-10T02:02:09;7.80;;;7.00;;
665;SDS011;315;48.738;9.126;2022-07-10T02:04:35;7.60;;;7.00;;
665;SDS011;315;48.738;9.126;2022-07-10T02:07:16;7.50;;;6.90;;
665;SDS011;315;48.738;9.126;2022-07-10T02:09:45;9.13;;;7.67;;
665;SDS011;315;48.738;9.126;2022-07-10T02:12:12;8.20;;;7.40;;
665;SDS011;315;48.738;9.126;2022-07-10T02:14:39;8.10;;;7.50;;
665;SDS011;315;48.738;9.126;2022-07-10T02:17:05;8.80;;;7.60;;
665;SDS011;315;48.738;9.126;2022-07-10T02:19:32;10.97;;;10.17;;
665;SDS011;315;48.738;9.126;2022-07-10T02:21:58;11.37;;;10.40;;
665;SDS011;315;48.738;9.126;2022-07-10T02:24:24;12.47;;;11.47;;
665;SDS011;315;48.738;9.126;2022-07-10T02:26:49;13.57;;;12.47;;
665;SDS011;315;48.738;9.126;2022-07-10T02:29:15;14.20;;;13.10;;
665;SDS011;315;48.738;9.126;2022-07-10T02:31:41;14.63;;;13.43;;
665;SDS011;315;48.738;9.126;2022-07-10T02:34:07;15.27;;;13.93;;
665;SDS011;315;48.738;9.126;2022-07-10T02:36:33;15.37;;;13.80;;
665;SDS011;315;48.738;9.126;2022-07-10T02:38:59;14.77;;;13.67;;
665;SDS011;315;48.738;9.126;2022-07-10T02:41:25;14.27;;;13.00;;
665;SDS011;315;48.738;9.126;2022-07-10T02:43:51;16.17;;;14.80;;
665;SDS011;315;48.738;9.126;2022-07-10T02:46:16;17.47;;;15.97;;
665;SDS011;315;48.738;9.126;2022-07-10T02:48:42;18.57;;;16.97;;
665;SDS011;315;48.738;9.126;2022-07-10T02:51:07;19.40;;;17.67;;
665;SDS011;315;48.738;9.126;2022-07-10T02:53:33;18.03;;;16.43;;
665;SDS011;315;48.738;9.126;2022-07-10T02:55:58;20.13;;;18.47;;
665;SDS011;315;48.738;9.126;2022-07-10T02:58:24;19.60;;;18.00;;
665;SDS011;315;48.738;9.126;2022-07-10T03:00:50;16.37;;;14.90;;
665;SDS011;315;48.738;9.126;2022-07-10T03:03:16;17.87;;;16.27;;
665;SDS011;315;48.738;9.126;2022-07-10T03:05:42;16.73;;;14.13;;
665;SDS011;315;48.738;9.126;2022-07-10T03:08:09;17.57;;;15.87;;
665;SDS011;315;48.738;9.126;2022-07-10T03:10:34;17.77;;;15.80;;
665;SDS011;315;48.738;9.126;2022-07-10T03:13:00;17.20;;;15.70;;
665;SDS011;315;48.738;9.126;2022-07-10T03:15:26;19.47;;;17.77;;
665;SDS011;315;48.738;9.126;2022-07-10T03:17:52;19.77;;;18.17;;
665;SDS011;315;48.738;9.126;2022-07-10T03:20:17;19.30;;;17.67;;
665;SDS011;315;48.738;9.126;2022-07-10T03:22:43;18.00;;;16.30;;
665;SDS011;315;48.738;9.126;2022-07-10T03:25:09;16.73;;;15.33;;
665;SDS011;315;48.738;9.126;2022-07-10T03:27:34;17.83;;;16.33;;
665;SDS011;315;48.738;9.126;2022-07-10T03:30:00;19.13;;;17.43;;
665;SDS011;315;48.738;9.126;2022-07-10T03:32:25;18.30;;;16.80;;
665;SDS011;315;48.738;9.126;2022-07-10T03:34:51;17.57;;;15.97;;
665;SDS011;315;48.738;9.126;2022-07-10T03:37:17;17.70;;;16.17;;
665;SDS011;315;48.738;9.126;2022-07-10T03:39:42;18.73;;;16.83;;
665;SDS011;315;48.738;9.126;2022-07-10T03:42:08;18.70;;;17.20;;
665;SDS011;315;48.738;9.126;2022-07-10T03:44:33;18.40;;;16.63;;
665;SDS011;315;48.738;9.126;2022-07-10T03:46:58;17.67;;;16.27;;
665;SDS011;315;48.738;9.126;2022-07-10T03:51:59;17.97;;;16.40;;
665;SDS011;315;48.738;9.126;2022-07-10T03:54:26;18.13;;;16.53;;
665;SDS011;315;48.738;9.126;2022-07-10T03:56:52;17.73;;;16.27;;
665;SDS011;315;48.738;9.126;2022-07-10T03:59:36;18.57;;;16.80;;
665;SDS011;315;48.738;9.126;2022-07-10T04:02:01;18.77;;;17.07;;
665;SDS011;315;48.738;9.126;2022-07-10T04:04:27;18.00;;;16.50;;
665;SDS011;315;48.738;9.126;2022-07-10T04:06:53;16.90;;;15.50;;
665;SDS011;315;48.738;9.126;2022-07-10T04:09:18;18.07;;;16.23;;
665;SDS011;315;48.738;9.126;2022-07-10T04:11:44;17.40;;;15.80;;
665;SDS011;315;48.738;9.126;2022-07-10T04:14:09;19.33;;;17.63;;
665;SDS011;315;48.738;9.126;2022-07-10T04:16:35;17.97;;;16.43;;
665;SDS011;315;48.738;9.126;2022-07-10T04:19:00;18.47;;;16.67;;
665;SDS011;315;48.738;9.126;2022-07-10T04:21:26;19.40;;;17.60;;
665;SDS011;315;48.738;9.126;2022-07-10T04:23:51;19.50;;;17.73;;
665;SDS011;315;48.738;9.126;2022-07-10T04:26:17;18.50;;;16.70;;
665;SDS011;315;48.738;9.126;2022-07-10T04:28:42;17.60;;;16.30;;
665;SDS011;315;48.738;9.126;2022-07-10T04:31:08;19.57;;;17.57;;
665;SDS011;315;48.738;9.126;2022-07-10T04:33:33;18.33;;;16.73;;
665;SDS011;315;48.738;9.126;2022-07-10T04:35:59;17.83;;;16.20;;
665;SDS011;315;48.738;9.126;2022-07-10T04:38:24;14.90;;;13.50;;
665;SDS011;315;48.738;9.126;2022-07-10T04:40:50;17.23;;;15.93;;
665;SDS011;315;48.738;9.126;2022-07-10T04:43:15;17.63;;;15.47;;
665;SDS011;315;48.738;9.126;2022-07-10T04:45:41;14.10;;;12.90;;
665;SDS011;315;48.738;9.126;2022-07-10T04:48:06;14.73;;;13.40;;
665;SDS011;315;48.738;9.126;2022-07-10T04:50:32;15.47;;;14.17;;
665;SDS011;315;48.738;9.126;2022-07-10T04:52:57;14.00;;;12.80;;
665;SDS011;315;48.738;9.126;2022-07-10T04:55:23;14.50;;;13.10;;
665;SDS011;315;48.738;9.126;2022-07-10T04:57:49;12.63;;;11.50;;
665;SDS011;315;48.738;9.126;2022-07-10T05:00:14;13.17;;;12.10;;
665;SDS011;315;48.738;9.126;2022-07-10T05:02:41;10.73;;;9.93;;
665;SDS011;315;48.738;9.126;2022-07-10T05:05:07;11.53;;;10.40;;
665;SDS011;315;48.738;9.126;2022-07-10T05:07:33;11.27;;;10.37;;
665;SDS011;315;48.738;9.126;2022-07-10T05:09:58;10.20;;;9.37;;
665;SDS011;315;48.738;9.126;2022-07-10T05:12:24;10.43;;;9.53;;
665;SDS011;315;48.738;9.126;2022-07-10T05:14:49;11.87;;;10.63;;
665;SDS011;315;48.738;9.126;2022-07-10T05:17:15;11.23;;;10.10;;
665;SDS011;315;48.738;9.126;2022-07-10T05:19:40;9.03;;;8.43;;
665;SDS011;315;48.738;9.126;2022-07-10T05:22:06;10.47;;;9.47;;
665;SDS011;315;48.738;9.126;2022-07-10T05:24:32;9.20;;;8.40;;
665;SDS011;315;48.738;9.126;2022-07-10T05:26:58;8.87;;;8.17;;
665;SDS011;315;48.738;9.126;2022-07-10T05:29:23;8.83;;;7.93;;
665;SDS011;315;48.738;9.126;2022-07-10T05:31:49;8.17;;;7.57;;
665;SDS011;315;48.738;9.126;2022-07-10T05:34:14;8.37;;;7.50;;
665;SDS011;315;48.738;9.126;2022-07-10T05:36:40;8.47;;;7.77;;
665;SDS011;315;48.738;9.126;2022-07-10T05:39:05;10.10;;;7.40;;
665;SDS011;315;48.738;9.126;2022-07-10T05:41:31;8.50;;;6.83;;
665;SDS011;315;48.738;9.126;2022-07-10T05:43:58;7.10;;;6.50;;
665;SDS011;315;48.738;9.126;2022-07-10T05:46:24;7.33;;;6.73;;
665;SDS011;315;48.738;9.126;2022-07-10T05:48:50;6.50;;;5.90;;
665;SDS011;315;48.738;9.126;2022-07-10T05:51:15;6.60;;;5.90;;
665;SDS011;315;48.738;9.126;2022-07-10T05:53:41;6.43;;;5.67;;
665;SDS011;315;48.738;9.126;2022-07-10T05:56:06;5.57;;;5.07;;
665;SDS011;315;48.738;9.126;2022-07-10T05:58:32;5.47;;;4.53;;
665;SDS011;315;48.738;9.126;2022-07-10T06:00:57;4.77;;;4.47;;
665;SDS011;315;48.738;9.126;2022-07-10T06:03:23;6.27;;;5.30;;
665;SDS011;315;48.738;9.126;2022-07-10T06:05:49;4.70;;;4.40;;
665;SDS011;315;48.738;9.126;2022-07-10T06:08:14;5.57;;;5.07;;
665;SDS011;315;48.738;9.126;2022-07-10T06:10:40;4.60;;;4.30;;
665;SDS011;315;48.738;9.126;2022-07-10T06:13:06;5.07;;;4.67;;
665;SDS011;315;48.738;9.126;2022-07-10T06:15:31;4.73;;;4.23;;
665;SDS011;315;48.738;9.126;2022-07-10T06:17:57;4.83;;;4.30;;
665;SDS011;315;48.738;9.126;2022-07-10T06:20:24;5.53;;;3.93;;
665;SDS011;315;48.738;9.126;2022-07-10T06:22:51;4.40;;;4.00;;
665;SDS011;315;48.738;9.126;2022-07-10T06:25:16;6.57;;;4.50;;
665;SDS011;315;48.738;9.126;2022-07-10T06:27:42;4.87;;;4.57;;
665;SDS011;315;48.738;9.126;2022-07-10T06:30:07;6.57;;;5.70;;
665;SDS011;315;48.738;9.126;2022-07-10T06:32:33;5.07;;;4.67;;
665;SDS011;315;48.738;9.126;2022-07-10T06:34:59;5.33;;;4.70;;
665;SDS011;315;48.738;9.126;2022-07-10T06:37:24;4.77;;;4.47;;
665;SDS011;315;48.738;9.126;2022-07-10T06:39:50;4.63;;;4.30;;
665;SDS011;315;48.738;9.126;2022-07-10T06:42:16;5.13;;;4.73;;
665;SDS011;315;48.738;9.126;2022-07-10T06:44:42;4.87;;;4.17;;
665;SDS011;315;48.738;9.126;2022-07-10T06:47:08;6.00;;;5.47;;
665;SDS011;315;48.738;9.126;2022-07-10T06:49:54;6.10;;;4.90;;
665;SDS011;315;48.738;9.126;2022-07-10T06:52:20;5.80;;;4.33;;
665;SDS011;315;48.738;9.126;2022-07-10T06:54:46;7.97;;;7.17;;
665;SDS011;315;48.738;9.126;2022-07-10T06:57:12;5.23;;;4.83;;
665;SDS011;315;48.738;9.126;2022-07-10T06:59:37;6.00;;;4.50;;
665;SDS011;315;48.738;9.126;2022-07-10T07:02:03;4.50;;;3.47;;
665;SDS011;315;48.738;9.126;2022-07-10T07:04:29;4.17;;;3.80;;
665;SDS011;315;48.738;9.126;2022-07-10T07:06:55;3.57;;;3.33;;
665;SDS011;315;48.738;9.126;2022-07-10T07:09:20;5.30;;;3.80;;
665;SDS011;315;48.738;9.126;2022-07-10T07:11:46;3.50;;;2.93;;
665;SDS011;315;48.738;9.126;2022-07-10T07:14:11;3.57;;;3.20;;
665;SDS011;315;48.738;9.126;2022-07-10T07:16:38;4.70;;;3.70;;
665;SDS011;315;48.738;9.126;2022-07-10T07:19:22;4.83;;;3.33;;
665;SDS011;315;48.738;9.126;2022-07-10T07:21:56;8.10;;;3.27;;
665;SDS011;315;48.738;9.126;2022-07-10T07:24:43;5.00;;;3.40;;
665;SDS011;315;48.738;9.126;2022-07-10T07:27:09;4.57;;;3.20;;
665;SDS011;315;48.738;9.126;2022-07-10T07:29:35;4.37;;;3.80;;
665;SDS011;315;48.738;9.126;2022-07-10T07:32:01;3.73;;;3.43;;
665;SDS011;315;48.738;9.126;2022-07-10T07:34:27;4.70;;;4.30;;
665;SDS011;315;48.738;9.126;2022-07-10T07:36:52;3.50;;;3.23;;
665;SDS011;315;48.738;9.126;2022-07-10T07:39:18;5.37;;;3.67;;
665;SDS011;315;48.738;9.126;2022-07-10T07:41:43;4.70;;;3.50;;
665;SDS011;315;48.738;9.126;2022-07-10T07:44:09;3.93;;;3.60;;
665;SDS011;315;48.738;9.126;2022-07-10T07:46:34;5.43;;;3.40;;
665;SDS011;315;48.738;9.126;2022-07-10T07:49:00;3.60;;;3.30;;
665;SDS011;315;48.738;9.126;2022-07-10T07:51:25;3.17;;;2.97;;
665;SDS011;315;48.738;9.126;2022-07-10T07:53:51;3.90;;;3.10;;
665;SDS011;315;48.738;9.126;2022-07-10T07:56:16;6.37;;;3.43;;
665;SDS011;315;48.738;9.126;2022-07-10T07:58:42;3.60;;;3.23;;
665;SDS011;315;48.738;9.126;2022-07-10T08:01:07;2.90;;;2.70;;
665;SDS011;315;48.738;9.126;2022-07-10T08:03:33;4.80;;;2.97;;
665;SDS011;315;48.738;9.126;2022-07-10T08:05:58;7.57;;;2.80;;
665;SDS011;315;48.738;9.126;2022-07-10T08:08:24;3.20;;;2.80;;
665;SDS011;315;48.738;9.126;2022-07-10T08:10:49;4.20;;;3.83;;
665;SDS011;315;48.738;9.126;2022-07-10T08:13:15;4.70;;;2.10;;
665;SDS011;315;48.738;9.126;2022-07-10T08:15:40;2.83;;;2.27;;
665;SDS011;315;48.738;9.126;2022-07-10T08:18:06;2.50;;;2.30;;
665;SDS011;315;48.738;9.126;2022-07-10T08:20:32;2.80;;;2.43;;
665;SDS011;315;48.738;9.126;2022-07-10T08:22:58;3.10;;;2.67;;
665;SDS011;315;48.738;9.126;2022-07-10T08:25:24;3.40;;;2.47;;
665;SDS011;315;48.738;9.126;2022-07-10T08:27:49;4.90;;;2.53;;
665;SDS011;315;48.738;9.126;2022-07-10T08:30:15;4.10;;;2.60;;
665;SDS011;315;48.738;9.126;2022-07-10T08:32:41;6.80;;;3.10;;
665;SDS011;315;48.738;9.126;2022-07-10T08:35:07;3.20;;;2.43;;
665;SDS011;315;48.738;9.126;2022-07-10T08:37:44;2.40;;;2.20;;
665;SDS011;315;48.738;9.126;2022-07-10T08:40:15;4.23;;;3.00;;
665;SDS011;315;48.738;9.126;2022-07-10T08:42:41;2.90;;;2.70;;
665;SDS011;315;48.738;9.126;2022-07-10T08:45:09;4.67;;;3.00;;
665;SDS011;315;48.738;9.126;2022-07-10T08:47:36;3.13;;;2.50;;
665;SDS011;315;48.738;9.126;2022-07-10T08:50:03;2.90;;;2.60;;
665;SDS011;315;48.738;9.126;2022-07-10T08:52:38;3.40;;;2.40;;
665;SDS011;315;48.738;9.126;2022-07-10T08:55:08;3.33;;;2.13;;
665;SDS011;315;48.738;9.126;2022-07-10T08:57:38;3.10;;;2.40;;
665;SDS011;315;48.738;9.126;2022-07-10T09:00:06;3.57;;;2.90;;
665;SDS011;315;48.738;9.126;2022-07-10T09:02:32;2.80;;;2.60;;
665;SDS011;315;48.738;9.126;2022-07-10T09:04:57;2.50;;;2.23;;
665;SDS011;315;48.738;9.126;2022-07-10T09:07:24;7.03;;;2.50;;
665;SDS011;315;48.738;9.126;2022-07-10T09:09:56;2.90;;;2.30;;
665;SDS011;315;48.738;9.126;2022-07-10T09:12:23;2.90;;;2.33;;
665;SDS011;315;48.738;9.126;2022-07-10T09:14:49;2.27;;;2.17;;
665;SDS011;315;48.738;9.126;2022-07-10T09:17:16;2.27;;;2.13;;
665;SDS011;315;48.738;9.126;2022-07-10T09:19:42;5.00;;;2.70;;
665;SDS011;315;48.738;9.126;2022-07-10T09:22:08;6.10;;;2.60;;
665;SDS011;315;48.738;9.126;2022-07-10T09:24:39;4.70;;;3.20;;
665;SDS011;315;48.738;9.126;2022-07-10T09:27:12;3.73;;;3.00;;
665;SDS011;315;48.738;9.126;2022-07-10T09:29:44;4.10;;;2.30;;
665;SDS011;315;48.738;9.126;2022-07-10T09:32:16;4.83;;;2.60;;
665;SDS011;315;48.738;9.126;2022-07-10T09:34:46;5.70;;;3.03;;
665;SDS011;315;48.738;9.126;2022-07-10T09:37:26;5.17;;;3.20;;
665;SDS011;315;48.738;9.126;2022-07-10T09:39:56;3.30;;;2.20;;
665;SDS011;315;48.738;9.126;2022-07-10T09:45:12;2.87;;;2.63;;
665;SDS011;315;48.738;9.126;2022-07-10T09:47:38;3.90;;;2.70;;
665;SDS011;315;48.738;9.126;2022-07-10T09:50:30;4.13;;;1.90;;
665;SDS011;315;48.738;9.126;2022-07-10T09:52:58;2.43;;;2.23;;
665;SDS011;315;48.738;9.126;2022-07-10T09:55:26;3.93;;;3.43;;
665;SDS011;315;48.738;9.126;2022-07-10T09:57:56;2.67;;;2.00;;
665;SDS011;315;48.738;9.126;2022-07-10T10:00:27;5.13;;;2.57;;
665;SDS011;315;48.738;9.126;2022-07-10T10:02:58;2.53;;;2.33;;
665;SDS011;315;48.738;9.126;2022-07-10T10:05:34;3.20;;;2.90;;
665;SDS011;315;48.738;9.126;2022-07-10T10:08:01;3.47;;;3.17;;
665;SDS011;315;48.738;9.126;2022-07-10T10:10:32;4.40;;;3.23;;
665;SDS011;315;48.738;9.126;2022-07-10T10:13:00;3.57;;;3.20;;
665;SDS011;315;48.738;9.126;2022-07-10T10:15:31;3.87;;;3.17;;
665;SDS011;315;48.738;9.126;2022-07-10T10:17:57;3.33;;;2.80;;
665;SDS011;315;48.738;9.126;2022-07-10T10:20:24;3.63;;;3.30;;
665;SDS011;315;48.738;9.126;2022-07-10T10:23:10;3.90;;;2.60;;
665;SDS011;315;48.738;9.126;2022-07-10T10:25:37;3.40;;;2.57;;
665;SDS011;315;48.738;9.126;2022-07-10T10:28:08;2.57;;;2.33;;
665;SDS011;315;48.738;9.126;2022-07-10T10:30:36;2.77;;;2.57;;
665;SDS011;315;48.738;9.126;2022-07-10T10:33:18;2.77;;;2.30;;
665;SDS011;315;48.738;9.126;2022-07-10T10:36:08;3.63;;;2.67;;
665;SDS011;315;48.738;9.126;2022-07-10T10:46:32;4.10;;;2.20;;
665;SDS011;315;48.738;9.126;2022-07-10T10:49:04;2.23;;;2.07;;
665;SDS011;315;48.738;9.126;2022-07-10T10:54:32;2.87;;;2.30;;
665;SDS011;315;48.738;9.126;2022-07-10T10:57:22;2.60;;;2.40;;
665;SDS011;315;48.738;9.126;2022-07-10T11:00:11;2.80;;;2.60;;
665;SDS011;315;48.738;9.126;2022-07-10T11:02:39;4.03;;;2.40;;
665;SDS011;315;48.738;9.126;2022-07-10T11:07:55;6.90;;;2.73;;
665;SDS011;315;48.738;9.126;2022-07-10T11:15:40;21.93;;;11.23;;
665;SDS011;315;48.738;9.126;2022-07-10T11:18:08;15.10;;;8.10;;
665;SDS011;315;48.738;9.126;2022-07-10T11:20:39;3.47;;;2.53;;
665;SDS011;315;48.738;9.126;2022-07-10T11:26:27;5.37;;;4.40;;
665;SDS011;315;48.738;9.126;2022-07-10T11:29:17;2.40;;;2.23;;
665;SDS011;315;48.738;9.126;2022-07-10T11:31:43;7.20;;;4.37;;
665;SDS011;315;48.738;9.126;2022-07-10T11:34:18;5.73;;;4.40;;
665;SDS011;315;48.738;9.126;2022-07-10T11:36:44;4.13;;;3.00;;
665;SDS011;315;48.738;9.126;2022-07-10T11:39:12;5.17;;;3.40;;
665;SDS011;315;48.738;9.126;2022-07-10T11:41:42;5.47;;;3.10;;
665;SDS011;315;48.738;9.126;2022-07-10T11:44:13;9.70;;;6.80;;
665;SDS011;315;48.738;9.126;2022-07-10T11:46:42;3.87;;;3.23;;
665;SDS011;315;48.738;9.126;2022-07-10T11:49:13;2.70;;;2.20;;
665;SDS011;315;48.738;9.126;2022-07-10T11:51:39;7.70;;;5.10;;
665;SDS011;315;48.738;9.126;2022-07-10T11:54:07;2.67;;;2.20;;
665;SDS011;315;48.738;9.126;2022-07-10T11:56:41;14.50;;;6.10;;
665;SDS011;315;48.738;9.126;2022-07-10T11:59:12;2.80;;;2.10;;
665;SDS011;315;48.738;9.126;2022-07-10T12:01:42;8.10;;;2.70;;
665;SDS011;315;48.738;9.126;2022-07-10T12:04:10;4.10;;;2.70;;
665;SDS011;315;48.738;9.126;2022-07-10T12:06:37;2.90;;;2.67;;
665;SDS011;315;48.738;9.126;2022-07-10T12:09:09;5.27;;;4.17;;
665;SDS011;315;48.738;9.126;2022-07-10T12:11:36;10.20;;;6.70;;
665;SDS011;315;48.738;9.126;2022-07-10T12:14:09;3.40;;;2.50;;
665;SDS011;315;48.738;9.126;2022-07-10T12:16:40;6.23;;;4.80;;
665;SDS011;315;48.738;9.126;2022-07-10T12:19:08;3.20;;;2.20;;
665;SDS011;315;48.738;9.126;2022-07-10T12:21:35;4.60;;;2.03;;
665;SDS011;315;48.738;9.126;2022-07-10T12:24:01;3.47;;;1.57;;
665;SDS011;315;48.738;9.126;2022-07-10T12:26:32;5.93;;;3.60;;
665;SDS011;315;48.738;9.126;2022-07-10T12:29:05;5.23;;;2.60;;
665;SDS011;315;48.738;9.126;2022-07-10T12:31:32;2.80;;;1.90;;
665;SDS011;315;48.738;9.126;2022-07-10T12:33:59;2.00;;;1.80;;
665;SDS011;315;48.738;9.126;2022-07-10T12:36:46;4.13;;;3.73;;
665;SDS011;315;48.738;9.126;2022-07-10T12:39:13;1.80;;;1.57;;
665;SDS011;315;48.738;9.126;2022-07-10T12:44:48;5.30;;;3.57;;
665;SDS011;315;48.738;9.126;2022-07-10T12:47:14;2.30;;;1.63;;
665;SDS011;315;48.738;9.126;2022-07-10T12:52:19;2.13;;;1.93;;
665;SDS011;315;48.738;9.126;2022-07-10T12:55:09;2.20;;;2.00;;
665;SDS011;315;48.738;9.126;2022-07-10T13:00:22;3.20;;;1.70;;
665;SDS011;315;48.738;9.126;2022-07-10T13:02:57;3.57;;;2.30;;
665;SDS011;315;48.738;9.126;2022-07-10T13:05:31;1.77;;;1.67;;
665;SDS011;315;48.738;9.126;2022-07-10T13:08:20;1.30;;;1.20;;
665;SDS011;315;48.738;9.126;2022-07-10T13:13:17;1.90;;;1.40;;
665;SDS011;315;48.738;9.126;2022-07-10T13:15:42;2.13;;;1.40;;
665;SDS011;315;48.738;9.126;2022-07-10T13:18:25;4.47;;;3.37;;
665;SDS011;315;48.738;9.126;2022-07-10T13:20:52;1.63;;;1.53;;
665;SDS011;315;48.738;9.126;2022-07-10T13:23:23;4.70;;;2.63;;
665;SDS011;315;48.738;9.126;2022-07-10T13:25:50;1.53;;;1.40;;
665;SDS011;315;48.738;9.126;2022-07-10T13:28:19;5.77;;;3.57;;
665;SDS011;315;48.738;9.126;2022-07-10T13:30:45;4.00;;;1.67;;
665;SDS011;315;48.738;9.126;2022-07-10T13:33:11;2.93;;;2.00;;
665;SDS011;315;48.738;9.126;2022-07-10T13:35:36;2.77;;;1.90;;
665;SDS011;315;48.738;9.126;2022-07-10T13:38:03;2.30;;;2.00;;
665;SDS011;315;48.738;9.126;2022-07-10T13:40:33;2.20;;;1.73;;
665;SDS011;315;48.738;9.126;2022-07-10T13:43:00;2.43;;;1.90;;
665;SDS011;315;48.738;9.126;2022-07-10T13:45:26;1.83;;;1.60;;
665;SDS011;315;48.738;9.126;2022-07-10T13:47:55;2.10;;;1.70;;
665;SDS011;315;48.738;9.126;2022-07-10T13:50:21;5.40;;;4.87;;
665;SDS011;315;48.738;9.126;2022-07-10T13:52:47;3.30;;;1.80;;
665;SDS011;315;48.738;9.126;2022-07-10T13:55:13;4.57;;;1.90;;
665;SDS011;315;48.738;9.126;2022-07-10T13:57:39;1.83;;;1.40;;
665;SDS011;315;48.738;9.126;2022-07-10T14:00:05;2.03;;;1.83;;
665;SDS011;315;48.738;9.126;2022-07-10T14:02:31;1.87;;;1.60;;
665;SDS011;315;48.738;9.126;2022-07-10T14:04:57;2.50;;;1.30;;
665;SDS011;315;48.738;9.126;2022-07-10T14:07:23;1.83;;;1.50;;
665;SDS011;315;48.738;9.126;2022-07-10T14:09:48;2.10;;;1.37;;
665;SDS011;315;48.738;9.126;2022-07-10T14:12:14;1.63;;;1.47;;
665;SDS011;315;48.738;9.126;2022-07-10T14:14:40;1.63;;;1.50;;
665;SDS011;315;48.738;9.126;2022-07-10T14:17:05;4.33;;;1.93;;
665;SDS011;315;48.738;9.126;2022-07-10T14:19:31;2.27;;;1.80;;
665;SDS011;315;48.738;9.126;2022-07-10T14:21:56;3.07;;;2.03;;
665;SDS011;315;48.738;9.126;2022-07-10T14:24:23;2.50;;;1.97;;
665;SDS011;315;48.738;9.126;2022-07-10T14:26:48;3.40;;;1.90;;
665;SDS011;315;48.738;9.126;2022-07-10T14:29:14;3.60;;;2.00;;
665;SDS011;315;48.738;9.126;2022-07-10T14:31:39;2.53;;;1.70;;
665;SDS011;315;48.738;9.126;2022-07-10T14:34:05;1.30;;;1.20;;
665;SDS011;315;48.738;9.126;2022-07-10T14:36:31;4.00;;;1.57;;
665;SDS011;315;48.738;9.126;2022-07-10T14:38:57;2.53;;;1.60;;
665;SDS011;315;48.738;9.126;2022-07-10T14:41:23;2.53;;;1.47;;
665;SDS011;315;48.738;9.126;2022-07-10T14:43:50;1.30;;;1.20;;
665;SDS011;315;48.738;9.126;2022-07-10T14:46:16;3.80;;;1.50;;
665;SDS011;315;48.738;9.126;2022-07-10T14:48:41;2.23;;;1.47;;
665;SDS011;315;48.738;9.126;2022-07-10T14:51:07;3.40;;;1.70;;
665;SDS011;315;48.738;9.126;2022-07-10T14:53:33;3.23;;;1.80;;
665;SDS011;315;48.738;9.126;2022-07-10T14:56:03;3.00;;;1.57;;
665;SDS011;315;48.738;9.126;2022-07-10T14:58:30;2.27;;;2.03;;
665;SDS011;315;48.738;9.126;2022-07-10T15:00:59;3.40;;;2.17;;
665;SDS011;315;48.738;9.126;2022-07-10T15:03:25;2.53;;;1.80;;
665;SDS011;315;48.738;9.126;2022-07-10T15:05:51;2.83;;;1.13;;
665;SDS011;315;48.738;9.126;2022-07-10T15:08:21;5.00;;;1.40;;
665;SDS011;315;48.738;9.126;2022-07-10T15:10:47;4.30;;;1.70;;
665;SDS011;315;48.738;9.126;2022-07-10T15:13:13;2.30;;;1.77;;
665;SDS011;315;48.738;9.126;2022-07-10T15:15:39;2.27;;;1.87;;
665;SDS011;315;48.738;9.126;2022-07-10T15:18:05;2.50;;;1.80;;
665;SDS011;315;48.738;9.126;2022-07-10T15:20:32;2.90;;;1.33;;
665;SDS011;315;48.738;9.126;2022-07-10T15:22:57;1.80;;;1.50;;
665;SDS011;315;48.738;9.126;2022-07-10T15:25:23;3.00;;;1.53;;
665;SDS011;315;48.738;9.126;2022-07-10T15:27:50;5.37;;;1.47;;
665;SDS011;315;48.738;9.126;2022-07-10T15:30:15;3.60;;;1.30;;
665;SDS011;315;48.738;9.126;2022-07-10T15:32:41;1.67;;;1.57;;
665;SDS011;315;48.738;9.126;2022-07-10T15:35:06;2.30;;;2.10;;
665;SDS011;315;48.738;9.126;2022-07-10T15:37:32;2.47;;;2.00;;
665;SDS011;315;48.738;9.126;2022-07-10T15:39:58;4.50;;;1.70;;
665;SDS011;315;48.738;9.126;2022-07-10T15:42:24;4.10;;;2.20;;
665;SDS011;315;48.738;9.126;2022-07-10T15:44:49;5.40;;;3.60;;
665;SDS011;315;48.738;9.126;2022-07-10T15:47:15;2.10;;;1.80;;
665;SDS011;315;48.738;9.126;2022-07-10T15:49:41;1.50;;;1.40;;
665;SDS011;315;48.738;9.126;2022-07-10T15:52:07;3.30;;;1.60;;
665;SDS011;315;48.738;9.126;2022-07-10T15:54:33;2.90;;;1.53;;
665;SDS011;315;48.738;9.126;2022-07-10T15:56:58;2.07;;;1.60;;
665;SDS011;315;48.738;9.126;2022-07-10T15:59:24;5.33;;;4.10;;
665;SDS011;315;48.738;9.126;2022-07-10T16:01:50;2.33;;;1.50;;
665;SDS011;315;48.738;9.126;2022-07-10T16:04:17;4.20;;;2.27;;
665;SDS011;315;48.738;9.126;2022-07-10T16:06:43;2.00;;;1.47;;
665;SDS011;315;48.738;9.126;2022-07-10T16:09:09;1.60;;;1.50;;
665;SDS011;315;48.738;9.126;2022-07-10T16:11:34;6.53;;;2.73;;
665;SDS011;315;48.738;9.126;2022-07-10T16:14:00;3.03;;;2.10;;
665;SDS011;315;48.738;9.126;2022-07-10T16:16:25;2.53;;;2.10;;
665;SDS011;315;48.738;9.126;2022-07-10T16:18:51;1.83;;;1.73;;